createdAt,value
2016-10-22T00:00:13.045Z,57.60
2016-10-22T00:01:13.667Z,57.60
2016-10-22T00:02:09.507Z,is
2016-10-22T00:03:13.080Z,57.50
2016-10-22T00:04:13.705Z,57.60
2016-10-22T00:05:12.921Z,57.50
2016-10-22T00:06:13.554Z,57.60
2016-10-22T00:07:12.140Z,57.50
2016-10-22T00:08:12.854Z,57.50
2016-10-22T00:09:12.668Z,57.60
2016-10-22T00:10:12.075Z,57.50
2016-10-22T00:11:12.903Z,57.50
2016-10-22T00:12:12.169Z,57.60
2016-10-22T00:13:12.841Z,57.50
2016-10-22T00:14:11.774Z,57.50
2016-10-22T00:15:11.839Z,57.50
2016-10-22T00:16:12.479Z,57.50
2016-10-22T00:17:13.426Z,57.60
2016-10-22T00:18:11.446Z,57.60
2016-10-22T00:19:11.497Z,57.50
2016-10-22T00:20:11.555Z,57.50
2016-10-22T00:21:09.515Z,is
2016-10-22T00:22:12.365Z,57.50
2016-10-22T00:23:10.424Z,is
2016-10-22T00:24:11.406Z,57.50
2016-10-22T00:25:11.470Z,57.50
2016-10-22T00:26:09.542Z,is
2016-10-22T00:27:11.787Z,57.50
2016-10-22T00:28:10.375Z,is
2016-10-22T00:29:12.993Z,57.60
2016-10-22T00:30:13.772Z,57.60
2016-10-22T00:31:12.814Z,57.50
2016-10-22T00:32:11.894Z,57.60
2016-10-22T00:33:11.906Z,57.50
2016-10-22T00:34:11.989Z,57.50
2016-10-22T00:35:13.168Z,57.50
2016-10-22T00:36:12.777Z,57.50
2016-10-22T00:37:10.496Z,is
2016-10-22T00:38:11.679Z,57.50
2016-10-22T00:39:11.655Z,57.50
2016-10-22T00:40:14.237Z,57.50
2016-10-22T00:41:12.437Z,57.50
2016-10-22T00:42:12.553Z,57.60
2016-10-22T00:43:12.371Z,57.60
2016-10-22T00:44:12.038Z,57.50
2016-10-22T00:45:12.038Z,57.50
2016-10-22T00:46:13.233Z,57.50
2016-10-22T00:47:12.220Z,57.50
2016-10-22T00:48:13.697Z,57.60
2016-10-22T00:49:11.643Z,57.60
2016-10-22T00:50:12.563Z,57.60
2016-10-22T00:51:12.521Z,57.60
2016-10-22T00:52:12.363Z,57.60
2016-10-22T00:53:12.372Z,57.50
2016-10-22T00:54:12.067Z,57.60
2016-10-22T00:55:12.024Z,57.80
2016-10-22T00:56:12.021Z,57.70
2016-10-22T00:57:12.964Z,57.60
2016-10-22T00:58:12.325Z,57.50
2016-10-22T00:59:12.211Z,57.70
2016-10-22T01:00:21.622Z,57.60
2016-10-22T01:01:09.770Z,is
2016-10-22T01:02:13.262Z,57.90
2016-10-22T01:03:12.953Z,57.80
2016-10-22T01:04:12.421Z,57.50
2016-10-22T01:05:22.160Z,57.50
2016-10-22T01:06:11.254Z,is
2016-10-22T01:07:11.142Z,is
2016-10-22T01:08:09.510Z,is
2016-10-22T01:09:11.732Z,57.90
2016-10-22T01:10:12.814Z,58.00
2016-10-22T01:11:14.679Z,58.10
2016-10-22T01:12:12.140Z,58.10
2016-10-22T01:13:12.294Z,58.00
2016-10-22T01:14:14.873Z,58.10
2016-10-22T01:15:12.604Z,58.10
2016-10-22T01:16:15.254Z,58.10
2016-10-22T01:17:12.603Z,58.00
2016-10-22T01:18:14.599Z,58.10
2016-10-22T01:19:11.795Z,58.00
2016-10-22T01:20:13.444Z,58.10
2016-10-22T01:21:13.384Z,58.10
2016-10-22T01:22:14.949Z,58.10
2016-10-22T01:23:12.245Z,58.10
2016-10-22T01:24:13.683Z,58.10
2016-10-22T01:25:15.638Z,58.20
2016-10-22T01:26:13.907Z,58.20
2016-10-22T01:27:13.459Z,58.20
2016-10-22T01:28:13.481Z,58.30
2016-10-22T01:29:13.804Z,58.20
2016-10-22T01:30:11.740Z,58.00
2016-10-22T01:31:13.520Z,58.00
2016-10-22T01:32:11.574Z,58.20
2016-10-22T01:33:12.351Z,58.30
2016-10-22T01:34:11.893Z,58.20
2016-10-22T01:35:12.800Z,57.60
2016-10-22T01:36:10.714Z,is
2016-10-22T01:37:14.162Z,58.20
2016-10-22T01:38:12.717Z,58.20
2016-10-22T01:39:11.766Z,58.40
2016-10-22T01:40:14.824Z,58.30
2016-10-22T01:41:13.854Z,58.30
2016-10-22T01:42:10.140Z,is
2016-10-22T01:43:13.627Z,58.30
2016-10-22T01:44:11.706Z,58.20
2016-10-22T01:45:13.041Z,58.20
2016-10-22T01:46:14.428Z,58.30
2016-10-22T01:47:11.519Z,58.20
2016-10-22T01:48:12.108Z,58.20
2016-10-22T01:49:15.454Z,58.20
2016-10-22T01:50:13.367Z,58.10
2016-10-22T01:51:14.326Z,58.50
2016-10-22T01:52:14.004Z,58.10
2016-10-22T01:53:12.261Z,58.00
2016-10-22T01:54:14.555Z,58.20
2016-10-22T01:55:13.068Z,58.10
2016-10-22T01:56:12.628Z,58.30
2016-10-22T01:57:13.481Z,58.00
2016-10-22T01:58:11.361Z,57.90
2016-10-22T01:59:12.046Z,58.00
2016-10-22T02:00:12.656Z,58.10
2016-10-22T02:01:12.839Z,58.30
2016-10-22T02:02:13.316Z,58.20
2016-10-22T02:03:12.763Z,58.20
2016-10-22T02:04:11.595Z,58.20
2016-10-22T02:05:12.168Z,58.10
2016-10-22T02:06:15.854Z,58.10
2016-10-22T02:07:13.567Z,58.20
2016-10-22T02:08:12.442Z,58.00
2016-10-22T02:09:08.787Z,is
2016-10-22T02:10:13.396Z,58.10
2016-10-22T02:11:13.007Z,58.20
2016-10-22T02:12:11.987Z,58.20
2016-10-22T02:13:13.328Z,58.20
2016-10-22T02:14:13.898Z,58.10
2016-10-22T02:15:12.874Z,58.00
2016-10-22T02:16:12.902Z,58.10
2016-10-22T02:17:11.985Z,58.00
2016-10-22T02:18:12.115Z,58.10
2016-10-22T02:19:12.129Z,58.00
2016-10-22T02:20:15.276Z,58.10
2016-10-22T02:21:12.633Z,58.10
2016-10-22T02:22:18.688Z,58.10
2016-10-22T02:23:12.271Z,58.10
2016-10-22T02:24:13.205Z,58.00
2016-10-22T02:25:12.922Z,58.10
2016-10-22T02:26:13.284Z,58.00
2016-10-22T02:27:14.123Z,58.20
2016-10-22T02:28:12.865Z,58.10
2016-10-22T02:29:12.085Z,58.10
2016-10-22T02:30:12.171Z,58.10
2016-10-22T02:31:12.922Z,58.10
2016-10-22T02:32:13.202Z,58.20
2016-10-22T02:33:13.186Z,58.10
2016-10-22T02:34:12.267Z,58.00
2016-10-22T02:35:13.872Z,58.10
2016-10-22T02:36:13.037Z,58.20
2016-10-22T02:37:13.849Z,58.00
2016-10-22T02:38:12.302Z,58.10
2016-10-22T02:39:12.206Z,58.10
2016-10-22T02:40:13.544Z,58.20
2016-10-22T02:41:12.731Z,58.10
2016-10-22T02:42:11.717Z,58.20
2016-10-22T02:43:09.866Z,is
2016-10-22T02:44:13.424Z,58.00
2016-10-22T02:45:11.986Z,58.00
2016-10-22T02:46:12.195Z,58.10
2016-10-22T02:47:13.040Z,58.40
2016-10-22T02:48:13.256Z,58.30
2016-10-22T02:49:12.140Z,58.60
2016-10-22T02:50:12.690Z,58.40
2016-10-22T02:51:11.891Z,58.30
2016-10-22T02:52:12.994Z,58.50
2016-10-22T02:53:15.802Z,58.60
2016-10-22T02:54:12.210Z,58.70
2016-10-22T02:55:12.677Z,59.00
2016-10-22T02:56:11.798Z,58.70
2016-10-22T02:57:11.976Z,58.90
2016-10-22T02:58:13.881Z,58.90
2016-10-22T02:59:11.929Z,59.00
2016-10-22T03:00:19.365Z,59.00
2016-10-22T03:01:12.412Z,58.90
2016-10-22T03:02:11.716Z,58.70
2016-10-22T03:03:10.458Z,is
2016-10-22T03:04:12.266Z,58.60
2016-10-22T03:05:12.179Z,58.60
2016-10-22T03:06:13.031Z,58.50
2016-10-22T03:07:12.648Z,58.40
2016-10-22T03:08:13.412Z,58.50
2016-10-22T03:09:12.012Z,58.50
2016-10-22T03:10:18.158Z,58.50
2016-10-22T03:11:13.966Z,58.50
2016-10-22T03:12:13.322Z,58.60
2016-10-22T03:13:13.278Z,58.40
2016-10-22T03:14:12.926Z,58.40
2016-10-22T03:15:12.723Z,58.40
2016-10-22T03:16:12.783Z,58.60
2016-10-22T03:17:11.966Z,58.40
2016-10-22T03:18:12.829Z,58.50
2016-10-22T03:19:11.944Z,58.50
2016-10-22T03:20:14.182Z,58.50
2016-10-22T03:21:12.115Z,58.50
2016-10-22T03:22:10.142Z,is
2016-10-22T03:23:12.051Z,58.40
2016-10-22T03:24:12.797Z,58.50
2016-10-22T03:25:12.165Z,58.30
2016-10-22T03:26:12.767Z,58.50
2016-10-22T03:27:08.944Z,is
2016-10-22T03:28:12.910Z,58.50
2016-10-22T03:29:12.012Z,58.50
2016-10-22T03:30:13.601Z,58.50
2016-10-22T03:31:12.215Z,58.50
2016-10-22T03:32:13.567Z,58.50
2016-10-22T03:33:14.040Z,58.50
2016-10-22T03:34:12.406Z,58.40
2016-10-22T03:35:10.437Z,is
2016-10-22T03:36:12.468Z,58.40
2016-10-22T03:37:12.154Z,58.40
2016-10-22T03:38:12.631Z,58.50
2016-10-22T03:39:12.637Z,58.50
2016-10-22T03:40:17.447Z,58.40
2016-10-22T03:41:12.283Z,58.50
2016-10-22T03:42:12.215Z,58.50
2016-10-22T03:43:13.919Z,58.60
2016-10-22T03:44:11.692Z,58.50
2016-10-22T03:45:10.540Z,is
2016-10-22T03:46:13.689Z,58.50
2016-10-22T03:47:12.664Z,58.50
2016-10-22T03:48:17.640Z,58.40
2016-10-22T03:49:13.349Z,58.50
2016-10-22T03:50:12.939Z,58.50
2016-10-22T03:51:12.542Z,58.50
2016-10-22T03:52:12.950Z,58.40
2016-10-22T03:53:13.903Z,58.50
2016-10-22T03:54:12.712Z,58.50
2016-10-22T03:55:12.570Z,58.50
2016-10-22T03:56:12.213Z,58.60
2016-10-22T03:57:12.842Z,58.60
2016-10-22T03:58:12.577Z,59.10
2016-10-22T03:59:11.819Z,59.00
2016-10-22T04:00:13.544Z,59.00
2016-10-22T04:01:12.661Z,59.00
2016-10-22T04:02:12.534Z,58.90
2016-10-22T04:03:13.505Z,58.70
2016-10-22T04:04:12.021Z,58.50
2016-10-22T04:05:12.176Z,58.50
2016-10-22T04:06:12.193Z,58.50
2016-10-22T04:07:13.438Z,58.60
2016-10-22T04:08:13.034Z,58.60
2016-10-22T04:09:11.991Z,58.60
2016-10-22T04:10:12.375Z,58.60
2016-10-22T04:11:12.197Z,58.60
2016-10-22T04:12:13.084Z,58.60
2016-10-22T04:13:12.021Z,58.60
2016-10-22T04:14:12.622Z,58.70
2016-10-22T04:15:13.313Z,58.70
2016-10-22T04:16:12.406Z,58.70
2016-10-22T04:17:12.069Z,58.70
2016-10-22T04:18:11.992Z,58.60
2016-10-22T04:19:13.702Z,58.70
2016-10-22T04:20:10.457Z,is
2016-10-22T04:21:11.912Z,58.60
2016-10-22T04:22:13.276Z,58.50
2016-10-22T04:23:12.307Z,58.80
2016-10-22T04:24:13.575Z,58.70
2016-10-22T04:25:15.082Z,58.80
2016-10-22T04:26:12.281Z,58.60
2016-10-22T04:27:12.249Z,58.70
2016-10-22T04:28:12.080Z,58.70
2016-10-22T04:29:12.828Z,58.70
2016-10-22T04:30:11.951Z,58.60
2016-10-22T04:31:12.708Z,58.70
2016-10-22T04:32:20.652Z,58.60
2016-10-22T04:33:11.763Z,58.60
2016-10-22T04:34:16.598Z,58.50
2016-10-22T04:35:11.464Z,58.60
2016-10-22T04:36:11.993Z,58.50
2016-10-22T04:37:12.019Z,58.60
2016-10-22T04:38:12.230Z,58.50
2016-10-22T04:39:12.131Z,58.60
2016-10-22T04:40:12.225Z,58.60
2016-10-22T04:41:12.814Z,58.50
2016-10-22T04:42:11.856Z,58.50
2016-10-22T04:43:12.016Z,58.50
2016-10-22T04:44:18.451Z,58.70
2016-10-22T04:45:11.453Z,58.50
2016-10-22T04:46:10.463Z,is
2016-10-22T04:47:13.325Z,58.50
2016-10-22T04:48:14.908Z,58.60
2016-10-22T04:49:12.238Z,58.60
2016-10-22T04:50:12.269Z,58.40
2016-10-22T04:51:10.688Z,is
2016-10-22T04:52:12.344Z,58.50
2016-10-22T04:53:14.623Z,58.60
2016-10-22T04:54:13.048Z,58.60
2016-10-22T04:55:12.379Z,58.20
2016-10-22T04:56:11.952Z,58.50
2016-10-22T04:57:13.638Z,58.50
2016-10-22T04:58:12.459Z,58.60
2016-10-22T04:59:11.859Z,58.60
2016-10-22T05:00:12.474Z,58.50
2016-10-22T05:01:12.247Z,58.50
2016-10-22T05:02:13.926Z,58.50
2016-10-22T05:03:10.046Z,is
2016-10-22T05:04:12.207Z,58.40
2016-10-22T05:05:12.289Z,58.50
2016-10-22T05:06:10.357Z,is
2016-10-22T05:07:13.018Z,58.50
2016-10-22T05:08:12.841Z,58.50
2016-10-22T05:09:12.608Z,58.40
2016-10-22T05:10:17.896Z,58.50
2016-10-22T05:11:12.279Z,58.30
2016-10-22T05:12:11.399Z,58.50
2016-10-22T05:13:11.835Z,58.50
2016-10-22T05:14:11.825Z,58.70
2016-10-22T05:15:12.065Z,58.60
2016-10-22T05:16:12.116Z,58.60
2016-10-22T05:17:12.311Z,58.80
2016-10-22T05:18:13.910Z,58.60
2016-10-22T05:19:12.448Z,58.50
2016-10-22T05:20:10.149Z,is
2016-10-22T05:21:11.431Z,58.70
2016-10-22T05:22:12.432Z,58.60
2016-10-22T05:23:11.536Z,58.60
2016-10-22T05:24:11.971Z,58.60
2016-10-22T05:25:13.402Z,58.70
2016-10-22T05:26:12.749Z,58.70
2016-10-22T05:27:12.589Z,58.70
2016-10-22T05:28:12.215Z,58.70
2016-10-22T05:29:10.859Z,is
2016-10-22T05:30:12.724Z,58.70
2016-10-22T05:31:12.387Z,58.70
2016-10-22T05:32:10.004Z,is
2016-10-22T05:33:12.200Z,58.70
2016-10-22T05:34:13.551Z,58.80
2016-10-22T05:35:09.181Z,is
2016-10-22T05:36:12.721Z,58.70
2016-10-22T05:37:12.432Z,58.80
2016-10-22T05:38:12.353Z,58.90
2016-10-22T05:39:10.196Z,is
2016-10-22T05:40:13.051Z,58.70
2016-10-22T05:41:12.580Z,58.70
2016-10-22T05:42:12.241Z,58.80
2016-10-22T05:43:12.616Z,58.80
2016-10-22T05:44:12.046Z,59.00
2016-10-22T05:45:12.010Z,58.90
2016-10-22T05:46:13.476Z,59.10
2016-10-22T05:47:11.493Z,59.00
2016-10-22T05:48:11.603Z,59.00
2016-10-22T05:49:11.564Z,58.80
2016-10-22T05:50:11.601Z,58.80
2016-10-22T05:51:10.480Z,is
2016-10-22T05:52:12.360Z,58.80
2016-10-22T05:53:11.291Z,58.90
2016-10-22T05:54:12.930Z,58.80
2016-10-22T05:55:19.325Z,58.80
2016-10-22T05:56:12.088Z,59.00
2016-10-22T05:57:12.052Z,58.80
2016-10-22T05:58:12.847Z,58.90
2016-10-22T05:59:12.303Z,58.80
2016-10-22T06:00:12.325Z,58.90
2016-10-22T06:01:12.372Z,58.90
2016-10-22T06:02:11.528Z,58.80
2016-10-22T06:03:12.293Z,58.90
2016-10-22T06:04:13.270Z,58.90
2016-10-22T06:05:14.089Z,58.80
2016-10-22T06:06:12.401Z,58.80
2016-10-22T06:07:13.208Z,58.80
2016-10-22T06:08:13.079Z,58.80
2016-10-22T06:09:12.292Z,58.80
2016-10-22T06:10:13.460Z,58.80
2016-10-22T06:11:12.654Z,58.70
2016-10-22T06:12:12.150Z,58.60
2016-10-22T06:13:12.270Z,58.60
2016-10-22T06:14:14.054Z,58.70
2016-10-22T06:15:13.062Z,58.70
2016-10-22T06:16:12.133Z,58.70
2016-10-22T06:17:12.162Z,58.80
2016-10-22T06:18:12.282Z,59.00
2016-10-22T06:19:11.608Z,58.70
2016-10-22T06:20:12.504Z,58.70
2016-10-22T06:21:12.547Z,58.80
2016-10-22T06:22:12.157Z,58.80
2016-10-22T06:23:13.122Z,58.90
2016-10-22T06:24:12.202Z,59.20
2016-10-22T06:25:12.261Z,58.80
2016-10-22T06:26:12.936Z,58.80
2016-10-22T06:27:12.629Z,58.80
2016-10-22T06:28:13.966Z,58.70
2016-10-22T06:29:12.523Z,58.70
2016-10-22T06:30:12.594Z,58.70
2016-10-22T06:31:11.828Z,58.70
2016-10-22T06:32:12.794Z,58.80
2016-10-22T06:33:11.822Z,58.70
2016-10-22T06:34:12.421Z,58.70
2016-10-22T06:35:12.434Z,58.70
2016-10-22T06:36:11.366Z,58.70
2016-10-22T06:37:11.359Z,58.70
2016-10-22T06:38:12.769Z,58.70
2016-10-22T06:39:13.278Z,58.90
2016-10-22T06:40:12.206Z,58.80
2016-10-22T06:41:13.031Z,58.80
2016-10-22T06:42:13.552Z,58.70
2016-10-22T06:43:11.534Z,58.80
2016-10-22T06:44:12.060Z,59.20
2016-10-22T06:45:12.860Z,58.90
2016-10-22T06:46:12.450Z,58.20
2016-10-22T06:47:11.840Z,58.80
2016-10-22T06:48:12.612Z,56.10
2016-10-22T06:49:12.719Z,56.30
2016-10-22T06:50:11.899Z,57.90
2016-10-22T06:51:13.595Z,58.10
2016-10-22T06:52:12.283Z,58.70
2016-10-22T06:53:12.872Z,58.90
2016-10-22T06:54:12.864Z,59.30
2016-10-22T06:55:11.950Z,59.40
2016-10-22T06:56:12.125Z,59.50
2016-10-22T06:57:13.115Z,59.60
2016-10-22T06:58:13.113Z,59.70
2016-10-22T06:59:13.675Z,59.70
2016-10-22T07:00:11.622Z,59.50
2016-10-22T07:01:12.289Z,59.60
2016-10-22T07:02:09.617Z,is
2016-10-22T07:03:12.786Z,59.50
2016-10-22T07:04:09.831Z,is
2016-10-22T07:05:13.628Z,59.30
2016-10-22T07:06:11.554Z,59.20
2016-10-22T07:07:12.326Z,59.20
2016-10-22T07:08:11.388Z,59.20
2016-10-22T07:09:13.528Z,59.70
2016-10-22T07:10:12.667Z,59.20
2016-10-22T07:11:11.749Z,59.30
2016-10-22T07:12:09.296Z,is
2016-10-22T07:13:11.432Z,59.00
2016-10-22T07:14:12.039Z,58.00
2016-10-22T07:15:11.972Z,56.20
2016-10-22T07:16:12.125Z,56.30
2016-10-22T07:17:13.087Z,57.40
2016-10-22T07:18:12.657Z,57.90
2016-10-22T07:19:12.390Z,58.80
2016-10-22T07:20:12.127Z,58.90
2016-10-22T07:21:10.677Z,is
2016-10-22T07:22:12.001Z,58.60
2016-10-22T07:23:12.994Z,58.60
2016-10-22T07:24:12.019Z,58.40
2016-10-22T07:25:12.896Z,58.50
2016-10-22T07:26:13.351Z,57.40
2016-10-22T07:27:11.508Z,57.90
2016-10-22T07:28:13.497Z,57.40
2016-10-22T07:29:12.932Z,56.00
2016-10-22T07:30:11.112Z,is
2016-10-22T07:31:11.901Z,52.20
2016-10-22T07:32:13.468Z,55.60
2016-10-22T07:33:12.294Z,54.80
2016-10-22T07:34:13.388Z,54.30
2016-10-22T07:35:11.376Z,53.00
2016-10-22T07:36:12.944Z,53.30
2016-10-22T07:37:12.320Z,50.30
2016-10-22T07:38:14.228Z,51.30
2016-10-22T07:39:12.180Z,52.70
2016-10-22T07:40:15.741Z,51.60
2016-10-22T07:41:11.731Z,50.10
2016-10-22T07:42:12.572Z,51.00
2016-10-22T07:43:12.384Z,52.80
2016-10-22T07:44:12.794Z,51.50
2016-10-22T07:45:11.951Z,51.20
2016-10-22T07:46:13.102Z,47.50
2016-10-22T07:47:14.020Z,47.40
2016-10-22T07:48:12.249Z,50.20
2016-10-22T07:49:11.493Z,49.00
2016-10-22T07:50:12.266Z,49.00
2016-10-22T07:51:11.409Z,49.40
2016-10-22T07:52:11.274Z,49.80
2016-10-22T07:53:12.966Z,49.10
2016-10-22T07:54:11.984Z,49.50
2016-10-22T07:55:12.805Z,49.20
2016-10-22T07:56:12.719Z,48.90
2016-10-22T07:57:11.568Z,46.40
2016-10-22T07:58:11.588Z,47.40
2016-10-22T07:59:11.668Z,48.70
2016-10-22T08:00:11.728Z,48.20
2016-10-22T08:01:13.217Z,47.80
2016-10-22T08:02:10.759Z,is
2016-10-22T08:03:11.945Z,50.70
2016-10-22T08:04:12.226Z,50.50
2016-10-22T08:05:11.796Z,49.70
2016-10-22T08:06:12.641Z,47.60
2016-10-22T08:07:10.451Z,is
2016-10-22T08:08:12.250Z,50.30
2016-10-22T08:09:12.780Z,51.50
2016-10-22T08:10:09.816Z,is
2016-10-22T08:11:12.195Z,49.60
2016-10-22T08:12:12.077Z,48.70
2016-10-22T08:13:12.077Z,50.30
2016-10-22T08:14:10.676Z,is
2016-10-22T08:15:12.370Z,51.40
2016-10-22T08:16:11.919Z,52.50
2016-10-22T08:17:12.631Z,52.70
2016-10-22T08:18:10.562Z,is
2016-10-22T08:19:12.646Z,52.20
2016-10-22T08:20:11.763Z,52.00
2016-10-22T08:21:11.875Z,52.10
2016-10-22T08:22:12.039Z,52.00
2016-10-22T08:23:12.199Z,52.00
2016-10-22T08:24:14.516Z,52.10
2016-10-22T08:25:11.613Z,51.90
2016-10-22T08:26:12.148Z,51.80
2016-10-22T08:27:13.141Z,51.70
2016-10-22T08:28:12.329Z,51.70
2016-10-22T08:29:11.408Z,51.60
2016-10-22T08:30:11.581Z,51.60
2016-10-22T08:31:10.438Z,is
2016-10-22T08:32:11.648Z,51.70
2016-10-22T08:33:13.602Z,51.70
2016-10-22T08:34:12.311Z,51.70
2016-10-22T08:35:12.204Z,51.60
2016-10-22T08:36:12.343Z,51.60
2016-10-22T08:37:12.049Z,51.60
2016-10-22T08:38:12.069Z,51.60
2016-10-22T08:39:12.738Z,51.60
2016-10-22T08:40:11.745Z,51.60
2016-10-22T08:41:13.048Z,51.60
2016-10-22T08:42:12.450Z,51.60
2016-10-22T08:43:11.388Z,51.60
2016-10-22T08:44:11.920Z,51.70
2016-10-22T08:45:10.614Z,is
2016-10-22T08:46:13.308Z,51.60
2016-10-22T08:47:12.421Z,51.60
2016-10-22T08:48:11.480Z,51.80
2016-10-22T08:49:12.161Z,51.80
2016-10-22T08:50:12.391Z,51.80
2016-10-22T08:51:12.887Z,51.80
2016-10-22T08:52:13.712Z,51.80
2016-10-22T08:53:11.747Z,51.80
2016-10-22T08:54:12.195Z,51.80
2016-10-22T08:55:12.236Z,52.40
2016-10-22T08:56:12.048Z,52.40
2016-10-22T08:57:10.489Z,is
2016-10-22T08:58:10.244Z,is
2016-10-22T08:59:13.487Z,52.40
2016-10-22T09:00:12.167Z,52.30
2016-10-22T09:01:12.331Z,52.40
2016-10-22T09:02:13.315Z,52.60
2016-10-22T09:03:13.151Z,52.70
2016-10-22T09:04:13.045Z,51.70
2016-10-22T09:05:10.027Z,is
2016-10-22T09:06:12.911Z,51.80
2016-10-22T09:07:12.455Z,51.90
2016-10-22T09:08:13.147Z,52.70
2016-10-22T09:09:12.802Z,52.80
2016-10-22T09:10:12.791Z,53.00
2016-10-22T09:11:12.141Z,52.80
2016-10-22T09:12:12.152Z,53.00
2016-10-22T09:13:12.979Z,53.50
2016-10-22T09:14:12.657Z,53.50
2016-10-22T09:15:12.364Z,53.50
2016-10-22T09:16:11.778Z,53.40
2016-10-22T09:17:11.978Z,53.50
2016-10-22T09:18:11.957Z,53.50
2016-10-22T09:19:12.821Z,53.50
2016-10-22T09:20:12.483Z,53.50
2016-10-22T09:21:11.603Z,53.60
2016-10-22T09:22:12.476Z,53.60
2016-10-22T09:23:12.041Z,53.70
2016-10-22T09:24:11.695Z,53.70
2016-10-22T09:25:11.649Z,53.70
2016-10-22T09:26:11.673Z,53.70
2016-10-22T09:27:13.564Z,53.80
2016-10-22T09:28:11.578Z,53.80
2016-10-22T09:29:11.556Z,53.70
2016-10-22T09:30:11.754Z,53.80
2016-10-22T09:31:11.712Z,53.90
2016-10-22T09:32:13.648Z,54.00
2016-10-22T09:33:12.178Z,54.00
2016-10-22T09:34:13.132Z,54.20
2016-10-22T09:35:12.815Z,54.00
2016-10-22T09:36:12.565Z,54.00
2016-10-22T09:37:13.887Z,53.90
2016-10-22T09:38:11.994Z,53.90
2016-10-22T09:39:12.378Z,54.10
2016-10-22T09:40:11.591Z,53.00
2016-10-22T09:41:12.428Z,53.60
2016-10-22T09:42:12.068Z,53.70
2016-10-22T09:43:12.061Z,53.80
2016-10-22T09:44:12.832Z,53.80
2016-10-22T09:45:17.998Z,53.70
2016-10-22T09:46:11.995Z,53.50
2016-10-22T09:47:12.038Z,52.70
2016-10-22T09:48:12.015Z,53.40
2016-10-22T09:49:11.955Z,53.70
2016-10-22T09:50:12.362Z,53.70
2016-10-22T09:51:09.921Z,is
2016-10-22T09:52:13.016Z,53.80
2016-10-22T09:53:12.002Z,53.80
2016-10-22T09:54:12.302Z,53.90
2016-10-22T09:55:12.258Z,53.80
2016-10-22T09:56:12.811Z,53.80
2016-10-22T09:57:12.558Z,53.90
2016-10-22T09:58:12.315Z,53.80
2016-10-22T09:59:11.818Z,53.90
2016-10-22T10:00:12.165Z,54.00
2016-10-22T10:01:13.031Z,53.90
2016-10-22T10:02:10.187Z,is
2016-10-22T10:03:17.894Z,53.90
2016-10-22T10:04:12.600Z,53.80
2016-10-22T10:05:12.096Z,53.80
2016-10-22T10:06:11.979Z,53.90
2016-10-22T10:07:10.817Z,is
2016-10-22T10:08:12.821Z,53.90
2016-10-22T10:09:11.778Z,53.90
2016-10-22T10:10:12.528Z,53.90
2016-10-22T10:11:12.197Z,53.70
2016-10-22T10:12:12.819Z,53.90
2016-10-22T10:13:11.730Z,53.80
2016-10-22T10:14:11.761Z,53.70
2016-10-22T10:15:11.646Z,53.60
2016-10-22T10:16:11.772Z,53.80
2016-10-22T10:17:17.770Z,53.70
2016-10-22T10:18:11.886Z,53.90
2016-10-22T10:19:11.911Z,53.80
2016-10-22T10:20:11.812Z,53.70
2016-10-22T10:21:10.724Z,is
2016-10-22T10:22:11.673Z,53.70
2016-10-22T10:23:13.106Z,53.60
2016-10-22T10:24:12.791Z,53.70
2016-10-22T10:25:14.742Z,53.70
2016-10-22T10:26:12.579Z,53.70
2016-10-22T10:27:13.712Z,53.70
2016-10-22T10:28:12.369Z,53.70
2016-10-22T10:29:11.451Z,53.50
2016-10-22T10:30:11.498Z,53.60
2016-10-22T10:31:13.380Z,53.60
2016-10-22T10:32:11.945Z,53.60
2016-10-22T10:33:11.850Z,53.50
2016-10-22T10:34:11.766Z,53.50
2016-10-22T10:35:11.813Z,53.50
2016-10-22T10:36:13.608Z,53.50
2016-10-22T10:37:12.311Z,53.50
2016-10-22T10:38:14.139Z,53.40
2016-10-22T10:39:12.777Z,53.50
2016-10-22T10:40:12.351Z,53.50
2016-10-22T10:41:11.904Z,53.40
2016-10-22T10:42:12.650Z,53.50
2016-10-22T10:43:11.984Z,53.40
2016-10-22T10:44:12.795Z,53.50
2016-10-22T10:45:10.475Z,is
2016-10-22T10:46:12.621Z,53.50
2016-10-22T10:47:12.425Z,53.50
2016-10-22T10:48:12.346Z,53.40
2016-10-22T10:49:09.548Z,is
2016-10-22T10:50:12.315Z,53.50
2016-10-22T10:51:12.367Z,53.40
2016-10-22T10:52:11.352Z,53.30
2016-10-22T10:53:11.812Z,52.60
2016-10-22T10:54:11.647Z,53.40
2016-10-22T10:55:12.277Z,53.40
2016-10-22T10:56:12.337Z,53.30
2016-10-22T10:57:11.470Z,53.40
2016-10-22T10:58:12.141Z,53.40
2016-10-22T10:59:09.580Z,is
2016-10-22T11:00:13.360Z,53.40
2016-10-22T11:01:12.259Z,53.40
2016-10-22T11:02:12.703Z,53.30
2016-10-22T11:03:12.905Z,53.30
2016-10-22T11:04:11.851Z,53.20
2016-10-22T11:05:11.966Z,53.30
2016-10-22T11:06:10.572Z,is
2016-10-22T11:07:11.849Z,53.30
2016-10-22T11:08:10.688Z,is
2016-10-22T11:09:11.673Z,53.50
2016-10-22T11:10:11.603Z,53.30
2016-10-22T11:11:17.297Z,52.40
2016-10-22T11:12:11.876Z,51.60
2016-10-22T11:13:12.821Z,51.20
2016-10-22T11:14:11.783Z,51.40
2016-10-22T11:15:11.855Z,52.30
2016-10-22T11:16:12.497Z,52.80
2016-10-22T11:17:12.302Z,52.90
2016-10-22T11:18:12.342Z,52.50
2016-10-22T11:19:11.514Z,51.70
2016-10-22T11:20:12.223Z,52.50
2016-10-22T11:21:12.887Z,52.90
2016-10-22T11:22:12.578Z,53.00
2016-10-22T11:23:11.810Z,52.90
2016-10-22T11:24:14.348Z,52.90
2016-10-22T11:25:12.088Z,53.00
2016-10-22T11:26:12.854Z,52.90
2016-10-22T11:27:18.594Z,52.80
2016-10-22T11:28:09.359Z,is
2016-10-22T11:29:11.690Z,52.80
2016-10-22T11:30:12.726Z,52.80
2016-10-22T11:31:12.294Z,52.60
2016-10-22T11:32:12.866Z,52.70
2016-10-22T11:33:12.420Z,52.60
2016-10-22T11:34:13.431Z,52.60
2016-10-22T11:35:11.324Z,52.60
2016-10-22T11:36:12.234Z,52.40
2016-10-22T11:37:12.270Z,52.00
2016-10-22T11:38:11.801Z,52.50
2016-10-22T11:39:12.732Z,52.60
2016-10-22T11:40:11.852Z,52.60
2016-10-22T11:41:12.640Z,52.00
2016-10-22T11:42:12.229Z,52.50
2016-10-22T11:43:12.847Z,52.60
2016-10-22T11:44:11.869Z,52.60
2016-10-22T11:45:12.104Z,52.60
2016-10-22T11:46:11.936Z,52.50
2016-10-22T11:47:11.844Z,52.60
2016-10-22T11:48:13.231Z,52.70
2016-10-22T11:49:12.649Z,52.50
2016-10-22T11:50:12.361Z,52.90
2016-10-22T11:51:12.004Z,52.50
2016-10-22T11:52:12.632Z,52.50
2016-10-22T11:53:11.631Z,52.50
2016-10-22T11:54:11.698Z,52.60
2016-10-22T11:55:12.208Z,52.80
2016-10-22T11:56:14.093Z,52.60
2016-10-22T11:57:12.657Z,53.00
2016-10-22T11:58:12.165Z,53.00
2016-10-22T11:59:10.735Z,is
2016-10-22T12:00:12.010Z,52.70
2016-10-22T12:01:12.095Z,52.90
2016-10-22T12:02:12.646Z,53.20
2016-10-22T12:03:13.246Z,53.30
2016-10-22T12:04:12.156Z,53.20
2016-10-22T12:05:13.057Z,53.30
2016-10-22T12:06:14.113Z,53.50
2016-10-22T12:07:12.458Z,53.60
2016-10-22T12:08:11.523Z,53.60
2016-10-22T12:09:11.555Z,53.80
2016-10-22T12:10:11.929Z,53.80
2016-10-22T12:11:12.397Z,53.70
2016-10-22T12:12:11.987Z,52.90
2016-10-22T12:13:13.093Z,53.20
2016-10-22T12:14:12.332Z,53.20
2016-10-22T12:15:12.101Z,53.90
2016-10-22T12:16:12.923Z,54.00
2016-10-22T12:17:12.850Z,54.00
2016-10-22T12:18:11.591Z,53.80
2016-10-22T12:19:11.421Z,53.70
2016-10-22T12:20:12.876Z,53.60
2016-10-22T12:21:11.927Z,53.50
2016-10-22T12:22:13.628Z,53.90
2016-10-22T12:23:11.716Z,53.90
2016-10-22T12:24:12.574Z,53.70
2016-10-22T12:25:12.684Z,53.80
2016-10-22T12:26:13.082Z,54.00
2016-10-22T12:27:12.274Z,54.00
2016-10-22T12:28:12.148Z,54.00
2016-10-22T12:29:12.256Z,54.00
2016-10-22T12:30:12.127Z,54.00
2016-10-22T12:31:12.150Z,54.00
2016-10-22T12:32:13.987Z,54.10
2016-10-22T12:33:12.783Z,53.20
2016-10-22T12:34:13.401Z,51.90
2016-10-22T12:35:10.272Z,is
2016-10-22T12:36:12.107Z,51.90
2016-10-22T12:37:12.115Z,52.40
2016-10-22T12:38:14.044Z,53.50
2016-10-22T12:39:12.402Z,53.80
2016-10-22T12:40:13.048Z,53.90
2016-10-22T12:41:12.648Z,53.70
2016-10-22T12:42:10.597Z,is
2016-10-22T12:43:11.625Z,54.00
2016-10-22T12:44:11.666Z,54.00
2016-10-22T12:45:12.261Z,54.10
2016-10-22T12:46:14.045Z,53.90
2016-10-22T12:47:11.440Z,53.90
2016-10-22T12:48:11.555Z,53.90
2016-10-22T12:49:11.580Z,54.40
2016-10-22T12:50:12.045Z,53.80
2016-10-22T12:51:11.984Z,53.80
2016-10-22T12:52:12.063Z,53.80
2016-10-22T12:53:12.953Z,53.80
2016-10-22T12:54:12.231Z,53.90
2016-10-22T12:55:12.250Z,53.80
2016-10-22T12:56:10.708Z,is
2016-10-22T12:57:12.140Z,53.80
2016-10-22T12:58:12.186Z,53.90